Time;durP1;ratioP1;P1;durP2;ratioP2;P2;SDS_P1;SDS_P2;PMS_P1;PMS_P2;Temp;Humidity;BMP_temperature;BMP_pressure;BME280_temperature;BME280_humidity;BME280_pressure;Samples;Min_cycle;Max_cycle;Signal;HPM_P1;HPM_P2
2022/03/02 00:02:17;;;;;;;27.60;18.38;;;;;;;;;;5074909;28;20234;-68
2022/03/02 00:04:45;;;;;;;27.02;18.13;;;;;;;;;;5074652;28;20227;-67
2022/03/02 00:07:12;;;;;;;26.67;18.23;;;;;;;;;;5074677;28;20599;-67
2022/03/02 00:09:39;;;;;;;25.25;18.63;;;;;;;;;;5074164;28;20267;-67
2022/03/02 00:12:08;;;;;;;31.67;18.30;;;;;;;;;;5074806;28;20272;-68
2022/03/02 00:14:36;;;;;;;27.50;16.92;;;;;;;;;;5074448;28;20278;-67
2022/03/02 00:17:03;;;;;;;26.52;18.83;;;;;;;;;;5074957;28;20585;-67
2022/03/02 00:19:30;;;;;;;26.05;17.50;;;;;;;;;;5074381;28;20357;-67
2022/03/02 00:21:57;;;;;;;25.55;18.05;;;;;;;;;;5074324;28;20284;-68
2022/03/02 00:24:25;;;;;;;26.80;17.17;;;;;;;;;;5073956;28;20195;-67
2022/03/02 00:26:52;;;;;;;23.15;17.35;;;;;;;;;;5073892;28;20234;-67
2022/03/02 00:29:21;;;;;;;23.30;17.13;;;;;;;;;;5073974;28;20231;-67
2022/03/02 00:31:48;;;;;;;21.38;16.27;;;;;;;;;;5074159;28;20294;-68
2022/03/02 00:34:15;;;;;;;22.73;16.88;;;;;;;;;;5073777;28;20281;-68
2022/03/02 00:36:42;;;;;;;23.50;15.70;;;;;;;;;;5073725;28;20231;-68
2022/03/02 00:39:10;;;;;;;27.70;16.65;;;;;;;;;;5074195;28;20281;-67
2022/03/02 00:41:37;;;;;;;30.83;16.75;;;;;;;;;;5074151;28;20218;-68
2022/03/02 00:44:05;;;;;;;20.52;15.00;;;;;;;;;;5074285;28;20282;-67
2022/03/02 00:46:34;;;;;;;25.33;17.67;;;;;;;;;;5074446;28;20601;-67
2022/03/02 00:49:02;;;;;;;25.70;17.90;;;;;;;;;;5073879;28;20238;-67
2022/03/02 00:51:29;;;;;;;26.58;16.95;;;;;;;;;;5074117;28;20206;-68
2022/03/02 00:53:58;;;;;;;25.38;17.45;;;;;;;;;;5074159;28;20232;-68
2022/03/02 00:56:25;;;;;;;25.48;18.73;;;;;;;;;;5073804;28;20549;-68
2022/03/02 00:58:53;;;;;;;27.50;17.60;;;;;;;;;;5073766;28;20194;-67
2022/03/02 01:01:20;;;;;;;25.38;16.50;;;;;;;;;;5074309;28;20282;-68
2022/03/02 01:03:49;;;;;;;29.27;16.50;;;;;;;;;;5074510;28;20233;-68
2022/03/02 01:06:16;;;;;;;26.75;17.55;;;;;;;;;;5073730;28;20190;-67
2022/03/02 01:08:43;;;;;;;29.48;18.60;;;;;;;;;;5073667;28;20249;-68
2022/03/02 01:11:11;;;;;;;28.70;18.33;;;;;;;;;;5073579;28;20571;-68
2022/03/02 01:13:38;;;;;;;27.50;18.50;;;;;;;;;;5074409;28;20281;-68
2022/03/02 01:16:06;;;;;;;24.63;17.40;;;;;;;;;;5073579;28;20196;-68
2022/03/02 01:18:33;;;;;;;33.92;19.13;;;;;;;;;;5073579;28;20204;-68
2022/03/02 01:21:02;;;;;;;26.05;18.83;;;;;;;;;;5073511;28;20259;-67
2022/03/02 01:23:29;;;;;;;29.60;17.92;;;;;;;;;;5073510;28;20198;-67
2022/03/02 01:25:56;;;;;;;26.00;18.13;;;;;;;;;;5073186;28;20230;-68
2022/03/02 01:28:24;;;;;;;26.83;17.90;;;;;;;;;;5073174;28;20228;-69
2022/03/02 01:30:51;;;;;;;32.90;20.42;;;;;;;;;;5073517;28;20203;-67
2022/03/02 01:33:18;;;;;;;27.08;17.60;;;;;;;;;;5073459;28;20216;-68
2022/03/02 01:35:45;;;;;;;26.83;18.52;;;;;;;;;;5073469;28;20196;-68
2022/03/02 01:38:14;;;;;;;24.40;16.88;;;;;;;;;;5073832;28;20285;-68
2022/03/02 01:40:41;;;;;;;24.40;18.08;;;;;;;;;;5077216;28;20237;-68
2022/03/02 01:43:08;;;;;;;25.70;18.88;;;;;;;;;;5077811;28;20610;-68
2022/03/02 01:45:36;;;;;;;26.48;18.27;;;;;;;;;;5078097;28;20191;-68
2022/03/02 01:48:04;;;;;;;25.08;17.70;;;;;;;;;;5076964;28;20228;-68
2022/03/02 01:50:32;;;;;;;26.58;17.25;;;;;;;;;;5077193;28;20654;-67
2022/03/02 01:52:59;;;;;;;29.83;19.20;;;;;;;;;;5076876;28;20195;-67
2022/03/02 01:55:28;;;;;;;26.52;16.98;;;;;;;;;;5077432;28;20233;-67
2022/03/02 01:57:57;;;;;;;27.23;18.13;;;;;;;;;;5077089;28;20552;-68
2022/03/02 02:00:25;;;;;;;28.67;18.98;;;;;;;;;;5076670;28;20754;-68
2022/03/02 02:02:52;;;;;;;28.48;17.70;;;;;;;;;;5076671;28;20650;-68
2022/03/02 02:05:20;;;;;;;26.05;16.92;;;;;;;;;;5076608;28;20281;-67
2022/03/02 02:07:47;;;;;;;24.45;16.95;;;;;;;;;;5076925;28;20235;-67
2022/03/02 02:10:15;;;;;;;30.23;17.70;;;;;;;;;;5076780;28;20236;-67
2022/03/02 02:12:44;;;;;;;27.45;16.80;;;;;;;;;;5076501;28;20230;-69
2022/03/02 02:15:11;;;;;;;24.90;16.45;;;;;;;;;;5076750;28;20369;-68
2022/03/02 02:17:38;;;;;;;25.70;17.98;;;;;;;;;;5076951;28;20222;-69
2022/03/02 02:20:06;;;;;;;25.92;16.20;;;;;;;;;;5076295;28;20198;-68
2022/03/02 02:22:38;;;;;;;25.73;15.82;;;;;;;;;;5077083;28;20196;-68
2022/03/02 02:25:05;;;;;;;24.92;18.50;;;;;;;;;;5077397;28;20271;-68
2022/03/02 02:27:33;;;;;;;34.67;19.20;;;;;;;;;;5076924;28;20233;-68
2022/03/02 02:30:01;;;;;;;21.75;15.93;;;;;;;;;;5076155;28;20204;-69
2022/03/02 02:32:29;;;;;;;23.88;15.70;;;;;;;;;;5077108;28;20231;-69
2022/03/02 02:34:57;;;;;;;22.85;15.82;;;;;;;;;;5076093;28;20648;-68
2022/03/02 02:37:24;;;;;;;19.85;15.30;;;;;;;;;;5077117;28;20578;-68
2022/03/02 02:40:00;;;;;;;22.02;15.15;;;;;;;;;;5076124;28;20227;-69
2022/03/02 02:42:28;;;;;;;20.05;15.40;;;;;;;;;;5076439;28;20655;-68
2022/03/02 02:44:55;;;;;;;22.60;15.70;;;;;;;;;;5076068;28;20251;-68
2022/03/02 02:47:22;;;;;;;24.02;15.77;;;;;;;;;;5076323;28;20636;-68
2022/03/02 02:49:50;;;;;;;26.00;16.65;;;;;;;;;;5075832;28;20728;-68
2022/03/02 02:52:17;;;;;;;28.08;16.35;;;;;;;;;;5075406;28;20237;-68
2022/03/02 02:54:44;;;;;;;23.20;15.02;;;;;;;;;;5076168;28;20195;-69
2022/03/02 02:57:13;;;;;;;22.08;16.08;;;;;;;;;;5075701;28;20243;-68
2022/03/02 02:59:40;;;;;;;22.30;16.60;;;;;;;;;;5075941;28;20289;-68
2022/03/02 03:02:07;;;;;;;26.58;17.25;;;;;;;;;;5075489;28;20302;-69
2022/03/02 03:04:35;;;;;;;25.52;16.50;;;;;;;;;;5075577;28;20200;-68
2022/03/02 03:07:02;;;;;;;23.38;15.88;;;;;;;;;;5075853;28;20203;-68
2022/03/02 03:09:29;;;;;;;23.08;15.80;;;;;;;;;;5075253;28;20226;-68
2022/03/02 03:11:56;;;;;;;26.95;16.23;;;;;;;;;;5075187;28;20281;-68
2022/03/02 03:14:25;;;;;;;27.02;15.13;;;;;;;;;;5075715;28;20190;-68
2022/03/02 03:16:52;;;;;;;23.55;16.65;;;;;;;;;;5075307;28;20199;-69
2022/03/02 03:19:19;;;;;;;21.05;14.90;;;;;;;;;;5075634;28;20286;-68
2022/03/02 03:21:46;;;;;;;21.77;15.45;;;;;;;;;;5075490;28;20220;-67
2022/03/02 03:24:14;;;;;;;23.63;16.15;;;;;;;;;;5075832;28;20238;-68
2022/03/02 03:26:41;;;;;;;21.30;15.50;;;;;;;;;;5075160;28;20715;-68
2022/03/02 03:29:08;;;;;;;26.15;14.50;;;;;;;;;;5075433;28;20200;-68
2022/03/02 03:31:37;;;;;;;24.98;16.30;;;;;;;;;;5075612;28;20200;-69
2022/03/02 03:34:04;;;;;;;22.90;16.40;;;;;;;;;;5075554;28;20203;-68
2022/03/02 03:36:31;;;;;;;25.55;16.25;;;;;;;;;;5074932;28;20209;-68
2022/03/02 03:38:58;;;;;;;21.88;14.45;;;;;;;;;;5074897;28;20285;-69
2022/03/02 03:41:26;;;;;;;25.38;15.40;;;;;;;;;;5074775;28;20297;-69
2022/03/02 03:43:53;;;;;;;25.83;16.23;;;;;;;;;;5075290;28;20242;-69
2022/03/02 03:46:20;;;;;;;26.55;15.90;;;;;;;;;;5074695;28;20231;-68
2022/03/02 03:48:49;;;;;;;22.90;16.92;;;;;;;;;;5074708;28;20198;-68
2022/03/02 03:51:17;;;;;;;24.38;16.27;;;;;;;;;;5075790;28;20197;-68
2022/03/02 03:53:44;;;;;;;24.95;15.65;;;;;;;;;;5074622;28;20194;-68
2022/03/02 03:56:12;;;;;;;27.23;16.83;;;;;;;;;;5075035;28;20198;-68
2022/03/02 03:58:39;;;;;;;23.65;15.63;;;;;;;;;;5074496;28;20191;-68
2022/03/02 04:01:06;;;;;;;22.10;14.60;;;;;;;;;;5074373;28;20218;-68
2022/03/02 04:03:35;;;;;;;25.33;15.85;;;;;;;;;;5073729;28;20289;-68
2022/03/02 04:06:04;;;;;;;22.35;15.68;;;;;;;;;;5074319;28;20196;-68
2022/03/02 04:08:31;;;;;;;23.80;16.23;;;;;;;;;;5074315;28;20660;-68
2022/03/02 04:10:59;;;;;;;22.85;16.10;;;;;;;;;;5074284;28;20226;-68
2022/03/02 04:13:27;;;;;;;20.08;14.18;;;;;;;;;;5074832;28;20202;-69
2022/03/02 04:15:54;;;;;;;28.38;16.40;;;;;;;;;;5074446;28;20244;-69
2022/03/02 04:18:21;;;;;;;22.50;15.23;;;;;;;;;;5074158;28;20206;-69
2022/03/02 04:20:49;;;;;;;24.35;16.42;;;;;;;;;;5074101;28;20199;-67
2022/03/02 04:23:18;;;;;;;22.25;15.55;;;;;;;;;;5074338;28;20553;-68
2022/03/02 04:25:45;;;;;;;24.60;16.05;;;;;;;;;;5073930;28;20200;-69
2022/03/02 04:28:12;;;;;;;27.35;17.58;;;;;;;;;;5074265;28;20226;-68
2022/03/02 04:30:39;;;;;;;25.42;15.70;;;;;;;;;;5074180;28;20600;-69
2022/03/02 04:33:07;;;;;;;26.70;16.40;;;;;;;;;;5073843;28;20243;-69
2022/03/02 04:35:34;;;;;;;19.38;14.60;;;;;;;;;;5074058;28;20202;-69
2022/03/02 04:38:02;;;;;;;22.75;16.35;;;;;;;;;;5074063;28;20202;-68
2022/03/02 04:40:30;;;;;;;22.27;16.77;;;;;;;;;;5074013;28;20198;-68
2022/03/02 04:42:58;;;;;;;30.05;16.55;;;;;;;;;;5074151;28;20228;-68
2022/03/02 04:45:27;;;;;;;27.05;15.40;;;;;;;;;;5073979;28;20198;-69
2022/03/02 04:47:55;;;;;;;22.52;15.50;;;;;;;;;;5073993;28;20192;-69
2022/03/02 04:50:22;;;;;;;22.40;15.70;;;;;;;;;;5073892;28;20199;-68
2022/03/02 04:52:50;;;;;;;21.20;15.88;;;;;;;;;;5073894;28;20226;-68
2022/03/02 04:55:17;;;;;;;25.80;16.23;;;;;;;;;;5073535;28;20663;-68
2022/03/02 04:57:47;;;;;;;23.08;15.38;;;;;;;;;;5073746;28;20726;-68
2022/03/02 05:00:15;;;;;;;22.23;15.50;;;;;;;;;;5073481;28;20654;-68
2022/03/02 05:02:42;;;;;;;21.98;15.23;;;;;;;;;;5073705;28;20218;-68
2022/03/02 05:05:11;;;;;;;23.30;15.65;;;;;;;;;;5073774;28;20256;-68
2022/03/02 05:07:38;;;;;;;21.85;14.68;;;;;;;;;;5073722;28;20568;-68
2022/03/02 05:10:06;;;;;;;24.60;15.32;;;;;;;;;;5073265;28;20216;-68
2022/03/02 05:12:34;;;;;;;24.48;15.43;;;;;;;;;;5074173;28;20229;-69
2022/03/02 05:15:03;;;;;;;21.67;14.50;;;;;;;;;;5073311;28;20256;-68
2022/03/02 05:17:31;;;;;;;20.58;16.48;;;;;;;;;;5073869;28;20609;-68
2022/03/02 05:19:58;;;;;;;20.75;15.18;;;;;;;;;;5073628;28;20292;-67
2022/03/02 05:22:25;;;;;;;22.15;15.32;;;;;;;;;;5072777;28;20303;-68
2022/03/02 05:24:53;;;;;;;23.67;15.48;;;;;;;;;;5073288;28;20219;-68
2022/03/02 05:27:20;;;;;;;19.08;15.45;;;;;;;;;;5072968;28;20682;-68
2022/03/02 05:29:47;;;;;;;22.48;16.05;;;;;;;;;;5073012;28;20198;-68
2022/03/02 05:32:16;;;;;;;24.48;15.35;;;;;;;;;;5073352;28;20234;-68
2022/03/02 05:34:43;;;;;;;22.10;15.52;;;;;;;;;;5073111;28;20226;-67
2022/03/02 05:37:10;;;;;;;33.88;16.88;;;;;;;;;;5072861;28;20281;-68
2022/03/02 05:39:37;;;;;;;24.27;15.52;;;;;;;;;;5072998;28;20197;-67
2022/03/02 05:42:05;;;;;;;23.40;15.82;;;;;;;;;;5073236;28;20300;-67
2022/03/02 05:44:32;;;;;;;21.55;14.85;;;;;;;;;;5073236;28;20206;-68
2022/03/02 05:47:00;;;;;;;22.17;17.92;;;;;;;;;;5073336;28;20198;-68
2022/03/02 05:49:29;;;;;;;22.92;15.15;;;;;;;;;;5073015;28;20244;-68
2022/03/02 05:51:56;;;;;;;21.60;16.10;;;;;;;;;;5075220;28;20252;-68
2022/03/02 05:54:23;;;;;;;20.50;14.98;;;;;;;;;;5093071;28;20229;-68
2022/03/02 05:56:51;;;;;;;20.40;15.27;;;;;;;;;;5093047;28;20281;-68
2022/03/02 05:59:18;;;;;;;23.23;14.68;;;;;;;;;;5093211;28;20240;-68
2022/03/02 06:01:46;;;;;;;24.65;16.20;;;;;;;;;;5092664;28;20301;-68
2022/03/02 06:04:18;;;;;;;26.25;16.20;;;;;;;;;;5092899;28;20285;-69
2022/03/02 06:06:47;;;;;;;23.30;15.25;;;;;;;;;;5093046;28;20192;-67
2022/03/02 06:09:14;;;;;;;25.15;16.60;;;;;;;;;;5093827;28;20280;-69
2022/03/02 06:11:43;;;;;;;20.83;15.30;;;;;;;;;;5093571;28;20570;-68
2022/03/02 06:14:11;;;;;;;25.27;15.70;;;;;;;;;;5093447;28;20189;-68
2022/03/02 06:16:39;;;;;;;21.75;16.00;;;;;;;;;;5092817;28;20193;-68
2022/03/02 06:19:06;;;;;;;22.70;15.40;;;;;;;;;;5093079;28;20216;-68
2022/03/02 06:21:34;;;;;;;24.05;15.77;;;;;;;;;;5092917;28;20674;-68
2022/03/02 06:24:03;;;;;;;26.17;13.68;;;;;;;;;;5092859;28;20202;-69
2022/03/02 06:26:30;;;;;;;21.80;14.98;;;;;;;;;;5094370;28;20206;-68
2022/03/02 06:28:57;;;;;;;19.73;15.38;;;;;;;;;;5097154;28;20190;-68
2022/03/02 06:31:24;;;;;;;20.92;16.20;;;;;;;;;;5096490;28;20190;-68
2022/03/02 06:33:52;;;;;;;24.10;14.95;;;;;;;;;;5096753;28;20284;-70
2022/03/02 06:36:20;;;;;;;21.33;14.55;;;;;;;;;;5096985;28;20194;-68
2022/03/02 06:38:48;;;;;;;22.13;15.30;;;;;;;;;;5096897;28;20286;-67
2022/03/02 06:41:25;;;;;;;35.72;20.23;;;;;;;;;;5096959;28;20191;-67
2022/03/02 06:43:56;;;;;;;29.98;18.50;;;;;;;;;;5096358;28;20214;-68
2022/03/02 06:46:27;;;;;;;22.52;13.93;;;;;;;;;;5096020;28;20213;-68
2022/03/02 06:48:57;;;;;;;24.77;14.65;;;;;;;;;;5096383;28;20181;-67
2022/03/02 06:51:26;;;;;;;24.52;15.02;;;;;;;;;;5096946;28;20187;-66
2022/03/02 06:53:53;;;;;;;22.83;15.10;;;;;;;;;;5095914;28;20722;-67
2022/03/02 06:56:23;;;;;;;21.52;15.05;;;;;;;;;;5096338;28;20230;-68
2022/03/02 06:58:51;;;;;;;19.40;13.65;;;;;;;;;;5096501;28;20196;-66
2022/03/02 07:01:24;;;;;;;23.42;15.70;;;;;;;;;;5096146;28;20198;-68
2022/03/02 07:03:54;;;;;;;27.17;15.93;;;;;;;;;;5096138;28;20298;-67
2022/03/02 07:06:22;;;;;;;19.42;14.15;;;;;;;;;;5096093;28;20297;-67
2022/03/02 07:08:50;;;;;;;17.92;13.77;;;;;;;;;;5096562;28;20229;-67
2022/03/02 07:11:18;;;;;;;25.25;15.63;;;;;;;;;;5096178;28;20265;-67
2022/03/02 07:13:47;;;;;;;26.08;16.02;;;;;;;;;;5096067;28;20241;-67
2022/03/02 07:16:15;;;;;;;27.15;16.83;;;;;;;;;;5095505;28;20191;-68
2022/03/02 07:18:42;;;;;;;47.50;15.32;;;;;;;;;;5095488;28;20667;-68
2022/03/02 07:21:11;;;;;;;23.02;14.00;;;;;;;;;;5096076;28;20223;-68
2022/03/02 07:23:41;;;;;;;26.33;14.50;;;;;;;;;;5095368;28;20737;-67
2022/03/02 07:26:10;;;;;;;29.58;15.20;;;;;;;;;;5096778;28;20220;-68
2022/03/02 07:28:39;;;;;;;25.90;15.13;;;;;;;;;;5095563;28;20226;-67
2022/03/02 07:31:09;;;;;;;24.83;15.48;;;;;;;;;;5095603;28;20202;-67
2022/03/02 07:33:41;;;;;;;21.10;14.63;;;;;;;;;;5095256;28;20672;-68
2022/03/02 07:36:09;;;;;;;26.15;14.43;;;;;;;;;;5095194;28;20193;-66
2022/03/02 07:38:37;;;;;;;40.15;17.42;;;;;;;;;;5095267;28;20230;-68
2022/03/02 07:41:07;;;;;;;33.22;15.75;;;;;;;;;;5095007;28;20200;-68
2022/03/02 07:43:36;;;;;;;30.35;14.82;;;;;;;;;;5095006;28;20202;-67
2022/03/02 07:46:03;;;;;;;31.38;15.15;;;;;;;;;;5095242;28;20195;-68
2022/03/02 07:48:32;;;;;;;22.95;13.35;;;;;;;;;;5095393;28;20294;-68
2022/03/02 07:51:00;;;;;;;33.13;13.90;;;;;;;;;;5095198;28;20251;-68
2022/03/02 07:53:32;;;;;;;25.98;15.68;;;;;;;;;;5095187;28;20195;-68
2022/03/02 07:56:00;;;;;;;22.15;13.88;;;;;;;;;;5095487;28;20593;-68
2022/03/02 07:58:29;;;;;;;17.73;11.55;;;;;;;;;;5095050;28;20281;-68
2022/03/02 08:00:56;;;;;;;22.77;13.40;;;;;;;;;;5094948;28;20191;-67
2022/03/02 08:03:26;;;;;;;29.38;13.93;;;;;;;;;;5095132;28;20253;-68
2022/03/02 08:05:55;;;;;;;17.42;13.98;;;;;;;;;;5095005;28;20240;-68
2022/03/02 08:08:23;;;;;;;20.02;14.07;;;;;;;;;;5094741;28;20190;-68
2022/03/02 08:10:50;;;;;;;18.33;11.70;;;;;;;;;;5094723;28;20316;-68
2022/03/02 08:13:18;;;;;;;23.20;13.75;;;;;;;;;;5094678;28;20279;-68
2022/03/02 08:15:45;;;;;;;25.50;14.43;;;;;;;;;;5095237;28;20190;-68
2022/03/02 08:18:12;;;;;;;21.67;14.18;;;;;;;;;;5095033;28;20698;-68
2022/03/02 08:20:41;;;;;;;22.80;13.32;;;;;;;;;;5094834;28;20200;-68
2022/03/02 08:23:10;;;;;;;21.48;13.88;;;;;;;;;;5095034;28;20217;-67
2022/03/02 08:25:38;;;;;;;19.83;14.25;;;;;;;;;;5094964;28;20197;-67
2022/03/02 08:28:09;;;;;;;17.42;12.82;;;;;;;;;;5094789;28;20225;-68
2022/03/02 08:30:38;;;;;;;20.08;11.98;;;;;;;;;;5094314;28;20697;-68
2022/03/02 08:33:06;;;;;;;23.33;12.70;;;;;;;;;;5094435;28;20199;-67
2022/03/02 08:35:36;;;;;;;18.38;13.88;;;;;;;;;;5093992;28;20200;-67
2022/03/02 08:38:03;;;;;;;15.90;11.90;;;;;;;;;;5094437;28;20194;-68
2022/03/02 08:40:32;;;;;;;18.83;13.45;;;;;;;;;;5094782;28;20245;-67
2022/03/02 08:43:00;;;;;;;16.52;12.45;;;;;;;;;;5093890;28;20255;-67
2022/03/02 08:45:29;;;;;;;17.45;12.93;;;;;;;;;;5093902;28;20194;-67
2022/03/02 08:48:00;;;;;;;16.92;13.50;;;;;;;;;;5094249;28;20330;-68
2022/03/02 08:50:27;;;;;;;23.70;13.23;;;;;;;;;;5093549;28;20640;-68
2022/03/02 08:52:55;;;;;;;22.52;12.75;;;;;;;;;;5094055;28;20198;-67
2022/03/02 08:55:22;;;;;;;20.35;13.13;;;;;;;;;;5093742;28;20233;-68
2022/03/02 08:57:53;;;;;;;19.23;12.48;;;;;;;;;;5093689;28;20287;-68
2022/03/02 09:00:20;;;;;;;21.02;13.05;;;;;;;;;;5093972;28;20275;-67
2022/03/02 09:02:48;;;;;;;14.82;11.55;;;;;;;;;;5094296;28;20309;-67
2022/03/02 09:05:15;;;;;;;16.92;11.45;;;;;;;;;;5093503;28;20201;-67
2022/03/02 09:07:43;;;;;;;18.63;12.48;;;;;;;;;;5094001;28;20286;-67
2022/03/02 09:10:11;;;;;;;21.60;13.07;;;;;;;;;;5093827;28;20198;-68
2022/03/02 09:12:40;;;;;;;24.30;15.45;;;;;;;;;;5093562;28;20227;-69
2022/03/02 09:15:09;;;;;;;17.13;13.50;;;;;;;;;;5093411;28;20201;-67
2022/03/02 09:17:36;;;;;;;18.35;12.02;;;;;;;;;;5093912;28;20339;-68
2022/03/02 09:20:04;;;;;;;15.15;11.57;;;;;;;;;;5093330;28;20230;-67
2022/03/02 09:22:32;;;;;;;15.95;11.95;;;;;;;;;;5093554;28;20223;-68
2022/03/02 09:25:00;;;;;;;13.85;10.90;;;;;;;;;;5093257;28;20199;-67
2022/03/02 09:27:31;;;;;;;16.27;12.60;;;;;;;;;;5094176;28;20224;-68
2022/03/02 09:29:59;;;;;;;17.83;13.65;;;;;;;;;;5093299;28;20275;-67
2022/03/02 09:32:28;;;;;;;18.48;12.38;;;;;;;;;;5093499;28;20190;-67
2022/03/02 09:34:57;;;;;;;16.45;11.75;;;;;;;;;;5093707;28;20226;-67
2022/03/02 09:37:26;;;;;;;18.63;12.55;;;;;;;;;;5093493;28;20201;-68
2022/03/02 09:39:53;;;;;;;17.48;11.55;;;;;;;;;;5093340;28;20192;-68
2022/03/02 09:42:24;;;;;;;21.15;12.57;;;;;;;;;;5093077;28;20253;-68
2022/03/02 09:44:54;;;;;;;18.67;13.13;;;;;;;;;;5093523;28;20184;-68
2022/03/02 09:47:24;;;;;;;17.45;11.48;;;;;;;;;;5093113;28;20294;-68
2022/03/02 09:49:54;;;;;;;16.58;12.60;;;;;;;;;;5093432;28;20190;-68
2022/03/02 09:52:22;;;;;;;16.88;11.48;;;;;;;;;;5093482;28;20187;-67
2022/03/02 09:54:54;;;;;;;14.35;11.13;;;;;;;;;;5093452;28;20289;-67
2022/03/02 09:57:22;;;;;;;16.85;11.00;;;;;;;;;;5092832;28;20182;-68
2022/03/02 09:59:51;;;;;;;13.70;10.65;;;;;;;;;;5093658;28;20591;-68
2022/03/02 10:02:26;;;;;;;25.38;15.23;;;;;;;;;;5096839;28;20206;-68
2022/03/02 10:04:56;;;;;;;19.67;14.07;;;;;;;;;;5097707;28;20262;-67
2022/03/02 10:07:28;;;;;;;14.00;11.52;;;;;;;;;;5097227;28;20226;-67
2022/03/02 10:09:59;;;;;;;13.38;10.30;;;;;;;;;;5096580;28;20679;-68
2022/03/02 10:12:28;;;;;;;13.23;10.15;;;;;;;;;;5096988;28;20267;-67
2022/03/02 10:14:55;;;;;;;12.90;9.90;;;;;;;;;;5096924;28;20206;-68
2022/03/02 10:17:24;;;;;;;14.88;9.77;;;;;;;;;;5096659;28;20290;-68
2022/03/02 10:19:54;;;;;;;20.73;10.52;;;;;;;;;;5096816;28;20235;-67
2022/03/02 10:22:37;;;;;;;20.17;10.90;;;;;;;;;;5096833;28;20341;-68
2022/03/02 10:25:06;;;;;;;14.68;11.15;;;;;;;;;;5096539;28;20651;-68
2022/03/02 10:27:35;;;;;;;17.00;10.25;;;;;;;;;;5096746;28;20199;-67
2022/03/02 10:30:07;;;;;;;18.23;11.13;;;;;;;;;;5096325;28;20199;-68
2022/03/02 10:32:36;;;;;;;13.82;10.73;;;;;;;;;;5097187;28;20192;-67
2022/03/02 10:35:08;;;;;;;14.40;10.07;;;;;;;;;;5096262;28;20200;-67
2022/03/02 10:37:37;;;;;;;13.80;10.40;;;;;;;;;;5096677;28;20224;-67
2022/03/02 10:40:11;;;;;;;15.57;9.35;;;;;;;;;;5096483;28;20286;-68
2022/03/02 10:42:41;;;;;;;13.13;10.15;;;;;;;;;;5096141;28;20187;-67
2022/03/02 10:45:15;;;;;;;15.55;10.18;;;;;;;;;;5096330;28;20323;-68
2022/03/02 10:47:44;;;;;;;14.25;9.48;;;;;;;;;;5096741;28;20267;-67
2022/03/02 10:50:11;;;;;;;11.30;8.80;;;;;;;;;;5096218;28;20564;-68
2022/03/02 10:52:40;;;;;;;14.93;10.90;;;;;;;;;;5096532;28;20197;-68
2022/03/02 10:55:09;;;;;;;17.08;12.65;;;;;;;;;;5097068;28;20657;-68
2022/03/02 10:57:36;;;;;;;13.68;9.57;;;;;;;;;;5096186;28;20262;-68
2022/03/02 11:00:09;;;;;;;12.20;8.60;;;;;;;;;;5096211;28;20285;-68
2022/03/02 11:02:39;;;;;;;11.80;9.70;;;;;;;;;;5096060;28;20186;-67
2022/03/02 11:05:10;;;;;;;14.55;10.40;;;;;;;;;;5096216;28;20208;-67
2022/03/02 11:07:37;;;;;;;14.18;9.88;;;;;;;;;;5096820;28;20184;-68
2022/03/02 11:10:07;;;;;;;12.70;9.90;;;;;;;;;;5096545;28;20205;-68
2022/03/02 11:12:34;;;;;;;12.15;9.40;;;;;;;;;;5095156;28;20228;-67
2022/03/02 11:15:02;;;;;;;11.02;9.85;;;;;;;;;;5096313;28;20205;-68
2022/03/02 11:17:29;;;;;;;11.65;9.98;;;;;;;;;;5095806;28;20290;-67
2022/03/02 11:19:57;;;;;;;19.85;12.50;;;;;;;;;;5095734;28;20232;-67
2022/03/02 11:22:25;;;;;;;13.25;10.52;;;;;;;;;;5095759;28;20195;-68
2022/03/02 11:25:05;;;;;;;;;;;;;;;;;;;;;
2022/03/02 11:27:38;;;;;;;13.63;10.20;;;;;;;;;;5095664;28;20545;-68
2022/03/02 11:30:07;;;;;;;14.70;9.98;;;;;;;;;;5095971;28;20195;-68
2022/03/02 11:32:34;;;;;;;14.45;9.93;;;;;;;;;;5095364;28;20200;-67
2022/03/02 11:35:03;;;;;;;11.77;9.13;;;;;;;;;;5095949;28;20204;-67
2022/03/02 11:37:31;;;;;;;9.98;8.98;;;;;;;;;;5094961;28;20203;-67
2022/03/02 11:39:59;;;;;;;14.80;10.02;;;;;;;;;;5094990;28;20292;-67
2022/03/02 11:42:30;;;;;;;10.52;9.18;;;;;;;;;;5095361;28;20201;-67
2022/03/02 11:44:59;;;;;;;12.13;9.27;;;;;;;;;;5095741;28;20302;-67
2022/03/02 11:47:34;;;;;;;10.88;9.77;;;;;;;;;;5095789;28;20224;-67
2022/03/02 11:50:01;;;;;;;11.35;9.20;;;;;;;;;;5094894;28;20177;-68
2022/03/02 11:52:29;;;;;;;9.75;8.75;;;;;;;;;;5095194;28;20199;-67
2022/03/02 11:54:57;;;;;;;12.02;8.18;;;;;;;;;;5094993;28;20205;-67
2022/03/02 11:57:26;;;;;;;13.20;10.80;;;;;;;;;;5094556;28;20198;-67
2022/03/02 12:00:07;;;;;;;10.80;9.57;;;;;;;;;;5094897;28;20205;-67
2022/03/02 12:02:40;;;;;;;12.45;8.75;;;;;;;;;;5095263;28;20195;-68
2022/03/02 12:05:10;;;;;;;11.98;10.65;;;;;;;;;;5094456;28;20241;-67
2022/03/02 12:07:38;;;;;;;12.82;9.60;;;;;;;;;;5094757;28;20196;-67
2022/03/02 12:10:06;;;;;;;11.73;9.20;;;;;;;;;;5094568;28;20560;-68
2022/03/02 12:12:41;;;;;;;13.40;10.27;;;;;;;;;;5094401;28;20312;-68
2022/03/02 12:15:10;;;;;;;13.90;10.73;;;;;;;;;;5094519;28;20268;-67
2022/03/02 12:17:37;;;;;;;24.15;10.98;;;;;;;;;;5094697;28;20298;-67
2022/03/02 12:20:07;;;;;;;14.43;9.57;;;;;;;;;;5094739;28;20277;-67
2022/03/02 12:22:35;;;;;;;10.98;8.60;;;;;;;;;;5094755;28;20192;-68
2022/03/02 12:25:04;;;;;;;11.90;8.63;;;;;;;;;;5093214;28;20221;-68
2022/03/02 12:27:31;;;;;;;13.25;9.48;;;;;;;;;;5094381;28;20290;-68
2022/03/02 12:30:00;;;;;;;10.52;8.85;;;;;;;;;;5094158;28;20235;-67
2022/03/02 12:32:30;;;;;;;13.90;9.05;;;;;;;;;;5094352;28;20624;-67
2022/03/02 12:34:58;;;;;;;11.25;9.02;;;;;;;;;;5095240;28;20234;-67
2022/03/02 12:37:26;;;;;;;12.48;8.57;;;;;;;;;;5094465;28;20200;-67
2022/03/02 12:39:53;;;;;;;16.70;8.73;;;;;;;;;;5094729;28;20342;-68
2022/03/02 12:42:20;;;;;;;9.32;8.43;;;;;;;;;;5094137;28;20196;-68
2022/03/02 12:44:49;;;;;;;11.60;8.88;;;;;;;;;;5094024;28;20655;-68
2022/03/02 12:47:18;;;;;;;10.35;8.27;;;;;;;;;;5094096;28;20200;-68
2022/03/02 12:49:47;;;;;;;12.88;8.75;;;;;;;;;;5094043;28;20529;-68
2022/03/02 12:52:15;;;;;;;12.52;10.35;;;;;;;;;;5093541;28;20302;-68
2022/03/02 12:54:43;;;;;;;17.85;10.48;;;;;;;;;;5093668;28;20628;-69
2022/03/02 12:57:11;;;;;;;14.30;10.10;;;;;;;;;;5093570;28;20291;-68
2022/03/02 12:59:38;;;;;;;13.15;9.43;;;;;;;;;;5093784;28;20194;-70
2022/03/02 13:02:07;;;;;;;10.52;8.48;;;;;;;;;;5093664;28;20240;-69
2022/03/02 13:04:41;;;;;;;8.98;8.07;;;;;;;;;;5093682;28;20212;-70
2022/03/02 13:07:14;;;;;;;15.30;9.32;;;;;;;;;;5093733;28;20562;-69
2022/03/02 13:09:46;;;;;;;9.35;8.25;;;;;;;;;;5093491;28;20280;-70
2022/03/02 13:12:26;;;;;;;30.42;10.90;;;;;;;;;;5093672;28;20240;-69
2022/03/02 13:14:54;;;;;;;9.73;8.70;;;;;;;;;;5093955;28;20258;-70
2022/03/02 13:17:22;;;;;;;10.35;9.27;;;;;;;;;;5092525;28;20228;-70
2022/03/02 13:19:51;;;;;;;13.40;9.00;;;;;;;;;;5093134;28;20193;-71
2022/03/02 13:22:30;;;;;;;13.50;8.90;;;;;;;;;;5093584;28;20192;-70
2022/03/02 13:24:59;;;;;;;14.07;9.13;;;;;;;;;;5093343;28;20539;-70
2022/03/02 13:27:26;;;;;;;9.82;8.05;;;;;;;;;;5093544;28;20272;-69
2022/03/02 13:30:08;;;;;;;16.65;10.40;;;;;;;;;;5092823;28;20682;-70
2022/03/02 13:33:08;;;;;;;10.90;8.23;;;;;;;;;;5091315;28;20200;-70
2022/03/02 13:35:37;;;;;;;70.20;15.85;;;;;;;;;;5032882;28;20230;-69
2022/03/02 13:38:10;;;;;;;11.32;8.52;;;;;;;;;;5035081;28;20199;-69
2022/03/02 13:40:44;;;;;;;9.93;7.87;;;;;;;;;;5066522;28;20189;-71
2022/03/02 13:43:34;;;;;;;11.05;8.57;;;;;;;;;;5097243;28;20511;-71
2022/03/02 13:46:20;;;;;;;10.00;8.63;;;;;;;;;;5097394;28;20215;-69
2022/03/02 13:48:48;;;;;;;10.83;7.93;;;;;;;;;;5097587;28;20201;-71
2022/03/02 13:51:15;;;;;;;10.55;8.38;;;;;;;;;;5096936;28;20921;-69
2022/03/02 13:53:45;;;;;;;11.95;7.55;;;;;;;;;;5097275;28;20235;-69
2022/03/02 13:56:13;;;;;;;11.32;8.98;;;;;;;;;;5096984;28;20204;-70
2022/03/02 13:58:43;;;;;;;9.55;7.70;;;;;;;;;;5097015;28;20231;-69
2022/03/02 14:01:14;;;;;;;8.80;7.85;;;;;;;;;;5097170;28;20260;-70
2022/03/02 14:03:44;;;;;;;9.50;7.30;;;;;;;;;;5097206;28;20282;-69
2022/03/02 14:06:12;;;;;;;8.63;7.83;;;;;;;;;;5097206;28;20975;-69
2022/03/02 14:08:44;;;;;;;10.73;7.47;;;;;;;;;;5096776;28;20520;-70
2022/03/02 14:11:27;;;;;;;13.48;8.38;;;;;;;;;;5096876;28;20314;-69
2022/03/02 14:13:54;;;;;;;9.35;7.97;;;;;;;;;;5096732;28;20196;-69
2022/03/02 14:16:21;;;;;;;11.90;8.10;;;;;;;;;;5096487;28;20197;-70
2022/03/02 14:18:52;;;;;;;9.15;8.25;;;;;;;;;;5096786;28;20610;-69
2022/03/02 14:21:19;;;;;;;9.55;8.25;;;;;;;;;;5095640;28;20196;-69
2022/03/02 14:23:49;;;;;;;9.13;7.55;;;;;;;;;;5096440;28;20247;-71
2022/03/02 14:26:17;;;;;;;8.40;7.70;;;;;;;;;;5096410;28;20254;-71
2022/03/02 14:28:44;;;;;;;9.73;8.73;;;;;;;;;;5096380;28;20451;-70
2022/03/02 14:31:11;;;;;;;8.18;7.25;;;;;;;;;;5096661;28;20223;-70